Time;durP1;ratioP1;P1;durP2;ratioP2;P2;SDS_P1;SDS_P2;PMS_P1;PMS_P2;Temp;Humidity;BMP_temperature;BMP_pressure;BME280_temperature;BME280_humidity;BME280_pressure;Samples;Min_cycle;Max_cycle;Signal;HPM_P1;HPM_P2
2022/01/13 00:01:01;;;;;;;10.48;7.53;;;;;;;15.19;38.23;95111.44;4919224;29;20415;-89
2022/01/13 00:03:26;;;;;;;11.73;8.15;;;;;;;15.23;37.91;95117.53;4897753;29;20047;-87
2022/01/13 00:05:51;;;;;;;12.00;8.40;;;;;;;15.23;38.06;95128.41;4929340;29;20036;-88
2022/01/13 00:08:17;;;;;;;12.40;8.52;;;;;;;15.20;38.06;95126.59;4929547;29;20103;-87
2022/01/13 00:10:42;;;;;;;11.55;8.43;;;;;;;15.22;37.98;95132.34;4913441;29;20153;-88
2022/01/13 00:13:10;;;;;;;11.65;7.28;;;;;;;15.19;38.04;95127.78;4929074;29;20047;-87
2022/01/13 00:15:51;;;;;;;11.70;7.88;;;;;;;15.21;37.93;95122.66;4929437;29;20442;-87
2022/01/13 00:18:37;;;;;;;12.18;8.23;;;;;;;15.25;38.05;95113.16;4929227;29;20040;-87
2022/01/13 00:21:15;;;;;;;12.20;8.23;;;;;;;15.21;37.91;95117.97;4903605;28;20411;-87
2022/01/13 00:23:46;;;;;;;11.70;8.32;;;;;;;15.21;37.96;95126.13;4921367;29;20031;-89
2022/01/13 00:26:18;;;;;;;12.57;8.27;;;;;;;15.23;37.88;95129.19;4919028;28;20039;-87
2022/01/13 00:28:45;;;;;;;12.18;7.70;;;;;;;15.26;37.76;95124.81;4935208;28;20031;-87
2022/01/13 00:31:11;;;;;;;11.35;7.30;;;;;;;15.20;38.03;95130.06;4933499;28;20534;-87
2022/01/13 00:33:38;;;;;;;12.35;7.28;;;;;;;15.21;37.78;95137.03;4949648;28;20043;-87
2022/01/13 00:36:03;;;;;;;10.88;7.70;;;;;;;15.17;37.94;95147.31;4933424;28;20035;-87
2022/01/13 00:38:31;;;;;;;11.48;7.47;;;;;;;15.20;38.03;95151.09;4933797;28;20086;-87
2022/01/13 00:40:56;;;;;;;8.82;7.32;;;;;;;15.17;38.04;95150.03;4933771;28;20120;-87
2022/01/13 00:43:22;;;;;;;10.45;6.97;;;;;;;15.20;38.25;95146.41;4933135;28;20051;-87
2022/01/13 00:45:48;;;;;;;8.68;6.30;;;;;;;15.19;38.21;95157.75;4933907;28;20062;-87
2022/01/13 00:48:14;;;;;;;10.48;7.18;;;;;;;15.21;38.10;95149.91;4949397;28;20046;-87
2022/01/13 00:50:39;;;;;;;10.75;7.13;;;;;;;15.19;38.03;95155.03;4949706;28;20035;-87
2022/01/13 00:53:05;;;;;;;8.13;6.18;;;;;;;15.17;38.18;95152.75;4933498;28;20035;-87
2022/01/13 00:55:46;;;;;;;9.43;6.68;;;;;;;15.20;37.87;95164.72;4933313;28;20455;-88
2022/01/13 00:58:12;;;;;;;11.32;7.60;;;;;;;15.17;38.11;95163.66;4949020;28;20502;-87
2022/01/13 01:00:37;;;;;;;9.75;6.72;;;;;;;15.19;37.92;95161.25;4949487;28;20050;-87
2022/01/13 01:03:03;;;;;;;10.05;6.78;;;;;;;15.22;37.86;95163.06;4933092;28;20038;-87
2022/01/13 01:05:29;;;;;;;8.52;5.65;;;;;;;15.17;38.31;95165.63;4917827;29;20059;-88
2022/01/13 01:07:54;;;;;;;9.68;7.05;;;;;;;15.14;38.07;95163.81;4933513;28;20483;-87
2022/01/13 01:10:20;;;;;;;8.88;5.97;;;;;;;15.17;38.01;95169.09;4932605;28;20050;-87
2022/01/13 01:12:46;;;;;;;12.70;7.28;;;;;;;15.22;37.74;95154.91;4939210;29;20126;-87
2022/01/13 01:15:12;;;;;;;9.57;6.18;;;;;;;15.14;38.19;95159.13;4923510;28;20422;-87
2022/01/13 01:17:44;;;;;;;9.68;6.97;;;;;;;15.17;37.91;95166.38;4924256;29;20035;-87
2022/01/13 01:20:09;;;;;;;7.75;5.95;;;;;;;15.21;37.98;95156.09;4940204;28;20030;-87
2022/01/13 01:22:42;;;;;;;8.10;5.93;;;;;;;15.16;38.15;95153.97;4955509;28;20035;-87
2022/01/13 01:27:41;;;;;;;8.25;5.45;;;;;;;15.17;37.96;95152.00;4955915;28;20351;-87
2022/01/13 01:30:31;;;;;;;7.68;5.90;;;;;;;15.16;37.94;95140.34;4940101;28;20039;-87
2022/01/13 01:32:56;;;;;;;8.45;6.07;;;;;;;15.19;37.76;95147.63;4948493;28;20038;-87
2022/01/13 01:35:25;;;;;;;8.82;5.85;;;;;;;15.19;38.17;95147.63;4960580;28;20595;-87
2022/01/13 01:37:51;;;;;;;8.10;5.85;;;;;;;15.19;37.93;95136.72;4959052;28;20039;-87
2022/01/13 01:40:16;;;;;;;8.45;5.93;;;;;;;15.15;37.99;95144.28;4942092;28;20486;-87
2022/01/13 01:42:41;;;;;;;9.38;6.47;;;;;;;15.14;37.63;95137.31;4958857;28;20097;-87
2022/01/13 01:45:08;;;;;;;8.57;5.85;;;;;;;15.21;37.79;95145.22;4958074;28;20031;-87
2022/01/13 01:47:33;;;;;;;8.45;6.05;;;;;;;15.16;38.11;95145.03;4927207;28;20038;-87
2022/01/13 01:50:10;;;;;;;7.95;5.90;;;;;;;15.19;37.87;95141.41;4927000;28;20530;-87
2022/01/13 01:52:36;;;;;;;8.75;5.80;;;;;;;15.17;38.24;95135.66;4924553;29;20046;-87
2022/01/13 01:55:01;;;;;;;8.65;6.38;;;;;;;15.19;37.93;95138.69;4923748;29;20043;-87
2022/01/13 01:57:27;;;;;;;7.60;5.68;;;;;;;15.18;38.09;95134.44;4907261;28;20071;-87
2022/01/13 01:59:53;;;;;;;8.75;5.68;;;;;;;15.17;37.69;95125.50;4929257;28;20371;-87
2022/01/13 02:02:20;;;;;;;7.80;5.97;;;;;;;15.15;38.06;95127.94;4953492;28;20050;-87
2022/01/13 02:04:45;;;;;;;7.28;5.72;;;;;;;15.21;37.73;95128.09;4926935;28;20089;-87
2022/01/13 02:07:12;;;;;;;9.00;5.80;;;;;;;15.17;38.10;95139.13;4941755;28;20519;-87
2022/01/13 02:09:41;;;;;;;8.35;5.85;;;;;;;15.22;38.06;95135.06;4973407;28;20039;-87
2022/01/13 02:12:10;;;;;;;6.53;4.88;;;;;;;15.23;37.72;95140.06;4937740;28;20031;-87
2022/01/13 02:14:36;;;;;;;7.28;5.55;;;;;;;15.17;37.91;95136.41;4957695;28;20035;-88
2022/01/13 02:17:12;;;;;;;8.82;5.82;;;;;;;15.18;37.81;95131.72;4940234;28;20042;-88
2022/01/13 02:19:39;;;;;;;8.27;5.07;;;;;;;15.18;37.95;95131.72;4943743;28;20035;-87
2022/01/13 02:22:05;;;;;;;8.07;5.95;;;;;;;15.23;37.52;95131.91;4942019;28;20047;-87
2022/01/13 02:24:30;;;;;;;7.20;5.70;;;;;;;15.23;37.55;95144.75;4954565;28;20038;-87
2022/01/13 02:26:56;;;;;;;7.07;5.38;;;;;;;15.23;37.75;95133.88;4939224;28;20514;-87
2022/01/13 02:29:21;;;;;;;8.90;5.75;;;;;;;15.19;37.94;95144.13;4938690;28;20494;-87
2022/01/13 02:31:47;;;;;;;9.20;5.80;;;;;;;15.18;37.99;95146.09;4955362;28;20034;-87
2022/01/13 02:34:12;;;;;;;8.00;5.30;;;;;;;15.14;37.98;95140.06;4919877;28;20438;-87
2022/01/13 02:36:40;;;;;;;7.07;4.82;;;;;;;15.15;37.93;95140.81;4935950;28;20142;-87
2022/01/13 02:39:06;;;;;;;8.23;5.78;;;;;;;15.17;37.55;95146.53;4935791;28;20036;-88
2022/01/13 02:41:32;;;;;;;8.65;5.50;;;;;;;15.19;37.84;95139.44;4920157;29;20485;-87
2022/01/13 02:43:58;;;;;;;8.57;6.40;;;;;;;15.21;37.29;95137.03;4920349;29;20039;-87
2022/01/13 02:49:04;;;;;;;8.98;5.68;;;;;;;15.21;37.87;95137.03;4936513;28;20090;-89
2022/01/13 02:51:29;;;;;;;8.27;4.85;;;;;;;15.22;37.73;95129.63;4919543;29;20427;-87
2022/01/13 02:53:54;;;;;;;8.65;5.75;;;;;;;15.21;37.79;95123.41;4920113;29;20036;-87
2022/01/13 02:56:20;;;;;;;8.73;5.68;;;;;;;15.22;37.81;95116.75;4934822;28;20400;-87
2022/01/13 02:58:45;;;;;;;7.13;5.15;;;;;;;15.16;37.74;95131.41;4919791;29;20040;-87
2022/01/13 03:01:11;;;;;;;8.30;5.60;;;;;;;15.16;37.78;95125.97;4918418;28;20474;-87
2022/01/13 03:03:38;;;;;;;8.30;5.50;;;;;;;15.17;37.85;95128.25;4935316;28;20117;-87
2022/01/13 03:06:14;;;;;;;7.75;4.78;;;;;;;15.16;37.79;95140.34;4919344;28;20039;-87
2022/01/13 03:08:47;;;;;;;7.32;5.35;;;;;;;15.16;38.13;95139.56;4935436;28;20031;-87
2022/01/13 03:11:13;;;;;;;7.38;5.22;;;;;;;15.18;37.63;95137.16;4919168;28;20043;-90
2022/01/13 03:13:39;;;;;;;7.78;5.43;;;;;;;15.18;37.67;95134.44;4936007;28;20094;-87
2022/01/13 03:16:06;;;;;;;6.57;4.72;;;;;;;15.13;37.90;95143.97;4919261;28;20460;-87
2022/01/13 03:18:31;;;;;;;6.43;5.05;;;;;;;15.18;37.79;95151.53;4935640;28;20040;-87
2022/01/13 03:20:57;;;;;;;9.32;6.07;;;;;;;15.17;37.90;95141.84;4919251;29;20032;-90
2022/01/13 03:23:22;;;;;;;8.20;5.07;;;;;;;15.14;37.82;95145.50;4934191;28;20031;-87
2022/01/13 03:25:48;;;;;;;6.28;5.15;;;;;;;15.16;37.69;95153.97;4935209;28;20034;-87
2022/01/13 03:28:28;;;;;;;7.90;5.32;;;;;;;15.19;37.86;95157.75;4934530;28;20031;-87
2022/01/13 03:30:53;;;;;;;7.50;5.00;;;;;;;15.17;37.94;95166.38;4951318;28;20434;-87
2022/01/13 03:33:19;;;;;;;6.63;5.15;;;;;;;15.17;37.73;95160.94;4934592;28;20043;-87
2022/01/13 03:35:44;;;;;;;7.00;5.45;;;;;;;15.18;37.55;95151.53;4934738;29;20494;-87
2022/01/13 03:38:09;;;;;;;6.70;5.47;;;;;;;15.14;37.83;95144.75;4934086;28;20479;-87
2022/01/13 03:40:36;;;;;;;6.97;5.00;;;;;;;15.20;37.73;95135.53;4919219;29;20039;-87
2022/01/13 03:43:02;;;;;;;6.20;5.00;;;;;;;15.16;37.77;95124.00;4919188;29;20062;-87
2022/01/13 03:45:27;;;;;;;6.78;4.93;;;;;;;15.23;37.48;95117.53;4934592;29;20487;-87
2022/01/13 03:47:53;;;;;;;6.43;5.20;;;;;;;15.17;37.58;95094.78;4950520;28;20035;-87
2022/01/13 03:50:19;;;;;;;7.30;5.53;;;;;;;15.19;37.64;95101.31;4934193;28;20043;-87
2022/01/13 03:53:02;;;;;;;6.72;5.03;;;;;;;15.22;37.71;95110.56;4934019;28;20120;-87
2022/01/13 03:56:04;;;;;;;7.38;5.20;;;;;;;15.20;37.56;95096.63;4950301;28;20039;-87
2022/01/13 03:58:57;;;;;;;;;;;;;;;15.23;37.53;95095.72;4950822;28;20027;-87
2022/01/13 04:01:41;;;;;;;6.80;4.80;;;;;;;15.19;37.63;95103.28;4950063;28;20405;-90
2022/01/13 04:04:06;;;;;;;5.32;4.28;;;;;;;15.17;37.17;95116.59;4930559;28;20051;-87
2022/01/13 04:06:39;;;;;;;6.45;4.82;;;;;;;15.19;37.55;95125.81;4899557;29;20491;-87
2022/01/13 04:09:08;;;;;;;6.63;4.85;;;;;;;15.12;37.82;95126.13;4930766;28;20054;-87
2022/01/13 04:11:34;;;;;;;6.32;4.75;;;;;;;15.19;37.30;95114.94;4915497;29;20034;-87
2022/01/13 04:14:02;;;;;;;7.03;5.00;;;;;;;15.18;38.00;95107.97;4915262;29;20031;-88
2022/01/13 04:16:29;;;;;;;6.05;4.55;;;;;;;15.15;37.58;95117.06;4915647;28;20040;-90
2022/01/13 04:19:03;;;;;;;7.45;5.20;;;;;;;15.13;37.72;95118.72;4931111;28;20031;-88
2022/01/13 04:21:28;;;;;;;6.35;4.57;;;;;;;15.12;37.82;95131.56;4927508;28;20705;-88
2022/01/13 04:23:56;;;;;;;7.35;4.38;;;;;;;15.14;37.82;95134.59;4934142;28;20283;-87
2022/01/13 04:26:27;;;;;;;6.68;5.28;;;;;;;15.19;37.74;95130.50;4918610;28;20062;-87
2022/01/13 04:29:01;;;;;;;;;;;;;;;15.18;37.74;95129.00;4934707;28;20027;-87
2022/01/13 04:31:26;;;;;;;7.00;4.97;;;;;;;15.15;37.75;95138.84;4949407;28;20012;-88
2022/01/13 04:33:52;;;;;;;5.72;4.63;;;;;;;15.18;37.66;95140.66;4930336;28;20043;-88
2022/01/13 04:36:17;;;;;;;6.55;4.80;;;;;;;15.17;37.75;95149.28;4914395;28;20043;-87
2022/01/13 04:38:43;;;;;;;6.35;4.55;;;;;;;15.12;37.97;95144.44;4914866;29;20452;-87
2022/01/13 04:41:08;;;;;;;5.90;4.32;;;;;;;15.16;37.61;95145.03;4914416;28;20047;-87
2022/01/13 04:43:34;;;;;;;7.00;4.70;;;;;;;15.17;37.76;95136.41;4930512;28;20039;-87
2022/01/13 04:45:59;;;;;;;6.63;4.75;;;;;;;15.17;37.87;95138.38;4914318;29;20043;-88
2022/01/13 04:48:24;;;;;;;6.60;4.63;;;;;;;15.18;37.35;95142.63;4930105;28;20672;-87
2022/01/13 04:50:50;;;;;;;6.47;4.82;;;;;;;15.17;37.57;95135.66;4914350;29;20047;-88
2022/01/13 04:53:15;;;;;;;5.82;4.75;;;;;;;15.23;37.16;95131.91;4914186;28;20058;-87
2022/01/13 04:55:49;;;;;;;6.18;4.53;;;;;;;15.18;37.83;95131.72;4930814;28;20083;-87
2022/01/13 04:58:15;;;;;;;6.72;5.10;;;;;;;15.22;37.48;95137.78;4915206;28;20063;-87
2022/01/13 05:00:40;;;;;;;7.00;5.03;;;;;;;15.14;37.85;95145.50;4942189;28;20722;-87
2022/01/13 05:03:05;;;;;;;6.57;4.28;;;;;;;15.19;37.39;95136.72;4916708;28;20106;-87
2022/01/13 05:05:31;;;;;;;6.45;4.53;;;;;;;15.16;37.79;95128.69;4933428;29;20070;-87
2022/01/13 05:07:56;;;;;;;5.75;4.05;;;;;;;15.13;37.83;95152.16;4933697;28;20035;-87
2022/01/13 05:10:22;;;;;;;7.80;4.10;;;;;;;15.16;37.85;95148.50;4916980;28;20521;-87
2022/01/13 05:12:53;;;;;;;8.00;5.80;;;;;;;15.20;37.60;95157.31;4933569;28;20090;-87
2022/01/13 05:15:23;;;;;;;6.13;4.35;;;;;;;15.15;37.72;95152.47;4918568;28;20051;-87
2022/01/13 05:20:27;;;;;;;6.88;4.43;;;;;;;15.23;37.31;95152.94;4933656;28;20049;-88
2022/01/13 05:22:53;;;;;;;8.70;6.07;;;;;;;15.20;37.79;95151.88;4918486;29;20077;-88
2022/01/13 05:25:19;;;;;;;15.45;5.97;;;;;;;15.26;37.63;95158.25;4950664;28;20036;-86
2022/01/13 05:27:45;;;;;;;9.63;6.57;;;;;;;15.28;37.56;95164.03;4934099;28;20402;-85
2022/01/13 05:30:13;;;;;;;22.15;16.85;;;;;;;15.24;37.54;95152.50;4933895;28;20112;-87
2022/01/13 05:32:38;;;;;;;52.28;34.90;;;;;;;15.37;37.70;95160.59;4920747;28;20050;-87
2022/01/13 05:35:04;;;;;;;136.30;86.63;;;;;;;15.45;38.36;95167.25;4952527;28;20058;-89
2022/01/13 05:37:30;;;;;;;14.43;7.93;;;;;;;15.53;38.63;95179.41;4936215;28;20031;-86
2022/01/13 05:39:56;;;;;;;21.90;11.45;;;;;;;15.59;38.47;95177.63;4934688;28;20146;-86
2022/01/13 05:42:21;;;;;;;12.60;8.73;;;;;;;15.61;38.37;95185.34;4936855;28;20095;-88
2022/01/13 05:44:47;;;;;;;16.77;10.32;;;;;;;15.56;38.03;95177.78;4942998;28;20038;-86
2022/01/13 05:47:13;;;;;;;14.45;8.82;;;;;;;15.67;38.74;95186.28;4936261;28;20466;-89
2022/01/13 05:49:40;;;;;;;13.13;7.97;;;;;;;15.44;37.55;95187.53;4936642;28;20030;-90
2022/01/13 05:52:11;;;;;;;17.58;9.25;;;;;;;15.40;37.70;95195.09;4915394;28;20035;-89
2022/01/13 05:54:37;;;;;;;63.92;14.85;;;;;;;15.40;37.80;95198.56;4958063;28;20038;-92
2022/01/13 05:57:03;;;;;;;36.15;10.45;;;;;;;15.45;37.63;95191.78;4928236;28;20411;-90
2022/01/13 05:59:28;;;;;;;42.75;13.57;;;;;;;15.37;37.73;95194.00;4929199;28;20069;-87
2022/01/13 06:01:54;;;;;;;32.28;11.10;;;;;;;15.36;37.72;95189.03;4966441;28;20045;-89
2022/01/13 06:04:19;;;;;;;44.58;16.05;;;;;;;15.33;37.70;95187.97;4947749;28;20065;-89
2022/01/13 06:06:45;;;;;;;38.25;16.20;;;;;;;15.35;37.86;95184.78;4933646;28;20038;-88
2022/01/13 06:09:10;;;;;;;54.58;20.73;;;;;;;15.32;36.67;95181.00;4933036;28;20453;-90
2022/01/13 06:11:51;;;;;;;56.70;20.92;;;;;;;15.14;32.60;95170.00;4948469;28;20035;-88
2022/01/13 06:14:17;;;;;;;157.98;42.80;;;;;;;15.02;32.80;95168.88;4953313;28;20043;-86
2022/01/13 06:16:42;;;;;;;87.40;27.77;;;;;;;15.00;31.14;95165.84;4966179;28;20478;-88
2022/01/13 06:19:07;;;;;;;232.68;55.63;;;;;;;15.00;31.53;95160.41;4956816;28;20102;-88
2022/01/13 06:21:33;;;;;;;169.27;43.95;;;;;;;14.99;31.26;95158.88;4949374;28;20035;-89
2022/01/13 06:23:58;;;;;;;139.07;39.05;;;;;;;15.00;31.49;95165.09;4918469;28;20040;-86
2022/01/13 06:26:24;;;;;;;112.45;45.40;;;;;;;14.93;31.62;95168.09;4940064;28;20046;-86
2022/01/13 06:28:49;;;;;;;88.13;35.83;;;;;;;15.04;31.91;95158.31;4943314;28;20650;-86
2022/01/13 06:31:15;;;;;;;111.63;41.80;;;;;;;15.04;33.07;95157.53;4940522;28;20406;-88
2022/01/13 06:33:40;;;;;;;97.50;39.25;;;;;;;15.07;33.53;95157.41;4912331;28;20039;-87
2022/01/13 06:36:06;;;;;;;142.50;50.95;;;;;;;15.03;33.66;95173.13;4944890;28;20128;-87
2022/01/13 06:38:31;;;;;;;95.28;35.22;;;;;;;14.89;33.24;95176.38;4950725;28;20061;-89
2022/01/13 06:40:58;;;;;;;82.32;33.40;;;;;;;14.92;33.16;95180.94;4936040;28;20034;-87
2022/01/13 06:43:23;;;;;;;75.30;33.25;;;;;;;14.94;33.18;95170.34;4943181;28;20035;-87
2022/01/13 06:45:49;;;;;;;76.00;35.80;;;;;;;14.94;33.55;95181.22;4919208;28;20557;-86
2022/01/13 06:48:14;;;;;;;83.47;35.78;;;;;;;14.99;34.58;95182.63;4954491;28;20106;-89
2022/01/13 06:50:40;;;;;;;85.13;41.92;;;;;;;15.01;35.02;95180.97;4937399;28;20043;-88
2022/01/13 06:53:07;;;;;;;92.93;48.13;;;;;;;15.05;34.85;95183.56;4950891;28;20043;-88
2022/01/13 06:55:33;;;;;;;161.10;66.70;;;;;;;15.06;34.92;95185.84;4940098;28;20042;-92
2022/01/13 06:57:58;;;;;;;144.48;51.38;;;;;;;15.12;34.82;95190.72;4940874;28;20124;-87
2022/01/13 07:00:24;;;;;;;98.78;43.88;;;;;;;15.07;35.03;95189.34;4944380;28;20047;-85
2022/01/13 07:02:53;;;;;;;81.47;39.03;;;;;;;15.16;35.10;95196.78;4953471;28;20063;-86
2022/01/13 07:05:18;;;;;;;131.40;43.20;;;;;;;15.17;34.91;95201.78;4927467;28;20039;-88
2022/01/13 07:07:45;;;;;;;128.45;50.67;;;;;;;15.24;34.91;95211.66;4957188;28;20039;-89
2022/01/13 07:10:11;;;;;;;119.43;45.92;;;;;;;15.25;34.84;95205.78;4958961;28;20045;-90
2022/01/13 07:12:37;;;;;;;105.88;44.13;;;;;;;15.23;35.20;95205.47;4939841;28;20043;-85
2022/01/13 07:15:05;;;;;;;112.07;48.30;;;;;;;15.19;35.17;95198.63;4939122;28;20062;-86
2022/01/13 07:17:30;;;;;;;101.82;44.92;;;;;;;15.14;35.13;95204.66;4939433;28;20499;-85
2022/01/13 07:19:56;;;;;;;98.75;45.78;;;;;;;15.25;34.95;95210.47;4938806;28;20042;-85
2022/01/13 07:22:21;;;;;;;102.07;45.05;;;;;;;15.27;35.11;95218.94;4919333;28;20116;-86
2022/01/13 07:24:46;;;;;;;101.45;48.17;;;;;;;15.22;35.37;95217.56;4912190;28;20081;-88
2022/01/13 07:27:12;;;;;;;106.35;49.47;;;;;;;15.25;35.18;95218.63;4924797;28;20047;-90
2022/01/13 07:29:39;;;;;;;95.15;45.50;;;;;;;15.21;35.46;95215.28;4925259;28;20103;-87
2022/01/13 07:32:06;;;;;;;93.22;46.42;;;;;;;15.20;35.45;95219.97;4938996;28;20034;-86
2022/01/13 07:34:31;;;;;;;108.47;48.88;;;;;;;15.17;35.67;95225.53;4933076;28;20075;-86
2022/01/13 07:36:57;;;;;;;86.22;42.38;;;;;;;15.21;35.37;95218.75;4933554;28;20074;-85
2022/01/13 07:39:22;;;;;;;80.80;40.40;;;;;;;15.12;33.78;95218.72;4950653;28;20054;-86
2022/01/13 07:41:48;;;;;;;74.00;36.05;;;;;;;15.12;33.57;95212.53;4919616;28;20043;-86
2022/01/13 07:44:15;;;;;;;98.25;41.42;;;;;;;15.11;33.45;95216.44;4909624;28;20142;-86
2022/01/13 07:46:40;;;;;;;104.47;43.70;;;;;;;15.09;33.57;95206.00;4951801;28;20054;-86
2022/01/13 07:49:06;;;;;;;111.53;51.03;;;;;;;15.13;34.05;95209.34;4918120;28;20027;-87
2022/01/13 07:51:31;;;;;;;115.95;47.40;;;;;;;15.12;34.56;95213.28;4952326;28;20410;-90
2022/01/13 07:53:57;;;;;;;139.93;51.35;;;;;;;15.15;35.14;95231.47;4922605;29;20638;-87
2022/01/13 07:56:23;;;;;;;126.53;52.28;;;;;;;15.12;35.08;95224.19;4935085;28;20043;-90
2022/01/13 07:58:48;;;;;;;163.80;55.42;;;;;;;15.22;35.51;95225.72;4934457;28;20051;-90
2022/01/13 08:01:16;;;;;;;147.07;55.33;;;;;;;15.20;35.65;95230.09;4955220;28;20110;-88
2022/01/13 08:03:41;;;;;;;119.47;49.40;;;;;;;15.18;36.05;95236.00;4917607;29;20044;-87
2022/01/13 08:06:07;;;;;;;110.88;52.47;;;;;;;15.19;35.96;95234.78;4949422;28;20113;-87
2022/01/13 08:08:35;;;;;;;94.25;45.85;;;;;;;15.18;36.22;95246.13;4935814;28;20051;-86
2022/01/13 08:11:01;;;;;;;148.00;62.75;;;;;;;15.13;36.25;95242.03;4935436;28;20046;-94
2022/01/13 08:13:26;;;;;;;123.80;56.40;;;;;;;15.19;35.88;95251.13;4919754;28;20040;-89
2022/01/13 08:15:54;;;;;;;127.00;56.60;;;;;;;15.20;36.34;95238.28;4951337;28;20483;-86
2022/01/13 08:21:04;;;;;;;131.48;63.92;;;;;;;15.21;36.61;95235.09;4934847;28;20038;-85
2022/01/13 08:23:29;;;;;;;131.32;63.40;;;;;;;15.21;36.38;95240.56;4903170;29;20419;-87
2022/01/13 08:25:55;;;;;;;117.85;59.70;;;;;;;15.27;36.33;95235.31;4932909;28;20094;-85
2022/01/13 08:28:21;;;;;;;132.45;61.67;;;;;;;15.27;36.80;95240.75;4949179;28;20566;-87
2022/01/13 08:30:47;;;;;;;173.55;70.68;;;;;;;15.26;36.71;95234.53;4950077;28;20351;-86
2022/01/13 08:33:12;;;;;;;151.65;64.35;;;;;;;15.28;36.77;95234.09;4934017;28;20054;-86
2022/01/13 08:35:43;;;;;;;149.82;68.00;;;;;;;15.28;36.81;95251.19;4937547;28;20043;-89
2022/01/13 08:38:16;;;;;;;113.78;61.90;;;;;;;15.26;36.79;95245.44;4918334;28;20458;-88
2022/01/13 08:40:43;;;;;;;141.70;67.25;;;;;;;15.27;36.86;95238.03;4920002;29;20129;-89
2022/01/13 08:43:08;;;;;;;118.70;59.70;;;;;;;15.28;36.77;95256.66;4934959;28;20043;-86
2022/01/13 08:45:34;;;;;;;121.55;62.50;;;;;;;15.30;37.04;95253.47;4950412;28;20109;-85
2022/01/13 08:47:59;;;;;;;108.60;55.78;;;;;;;15.26;36.22;95261.03;4950669;28;20074;-87
2022/01/13 08:50:25;;;;;;;139.80;59.35;;;;;;;15.25;35.37;95254.81;4915514;28;20106;-88
2022/01/13 08:52:50;;;;;;;130.32;58.30;;;;;;;15.28;35.24;95261.34;4950533;28;20035;-87
2022/01/13 08:55:16;;;;;;;135.75;56.15;;;;;;;15.24;35.67;95264.19;4933151;28;20126;-87
2022/01/13 08:57:42;;;;;;;126.20;50.05;;;;;;;15.35;35.45;95264.56;4951529;28;20412;-89
2022/01/13 09:00:08;;;;;;;108.90;53.25;;;;;;;15.27;36.11;95266.03;4916792;28;20102;-86
2022/01/13 09:02:34;;;;;;;114.28;55.40;;;;;;;15.25;36.79;95270.41;4949047;28;20046;-85
2022/01/13 09:05:03;;;;;;;115.50;57.05;;;;;;;15.24;36.72;95279.78;4930717;28;20039;-85
2022/01/13 09:07:28;;;;;;;99.18;51.50;;;;;;;15.29;36.68;95273.75;4915969;28;20734;-86
2022/01/13 09:09:55;;;;;;;107.18;52.75;;;;;;;15.29;36.78;95282.69;4931841;28;20043;-87
2022/01/13 09:12:20;;;;;;;111.20;54.53;;;;;;;15.31;36.79;95283.00;4912199;28;20127;-88
2022/01/13 09:14:46;;;;;;;99.32;49.28;;;;;;;15.32;36.69;95284.53;4938683;28;20039;-87
2022/01/13 09:17:20;;;;;;;106.38;50.28;;;;;;;15.33;36.73;95274.41;4918117;28;20421;-88
2022/01/13 09:19:45;;;;;;;110.75;53.05;;;;;;;15.27;36.92;95282.38;4937564;28;20050;-88
2022/01/13 09:22:11;;;;;;;105.45;51.65;;;;;;;15.28;36.88;95280.41;4920529;28;20035;-86
2022/01/13 09:24:36;;;;;;;104.22;43.65;;;;;;;15.27;36.78;95284.34;4924613;29;20099;-86
2022/01/13 09:27:03;;;;;;;95.57;48.22;;;;;;;15.30;36.73;95286.19;4925092;29;20035;-86
2022/01/13 09:29:28;;;;;;;112.80;53.00;;;;;;;15.36;36.77;95296.06;4935214;28;20043;-90
2022/01/13 09:31:54;;;;;;;126.38;56.25;;;;;;;15.37;36.94;95297.56;4918300;28;20054;-87
2022/01/13 09:34:19;;;;;;;112.68;52.95;;;;;;;15.35;36.82;95291.06;4955307;28;20047;-90
2022/01/13 09:36:45;;;;;;;119.43;53.72;;;;;;;15.35;36.95;95288.34;4940095;28;20304;-89
2022/01/13 09:39:11;;;;;;;111.95;53.63;;;;;;;15.34;36.91;95290.31;4937518;28;20082;-86
2022/01/13 09:41:38;;;;;;;141.73;61.63;;;;;;;15.37;37.12;95297.56;4941064;28;20444;-85
2022/01/13 09:44:04;;;;;;;121.60;52.20;;;;;;;15.40;36.70;95296.69;4934218;28;20054;-84
2022/01/13 09:46:30;;;;;;;263.77;112.22;;;;;;;15.36;37.19;95292.59;4938861;28;20043;-85
2022/01/13 09:48:56;;;;;;;112.72;52.85;;;;;;;15.37;37.01;95294.84;4921548;29;20043;-85
2022/01/13 09:51:25;;;;;;;107.40;51.47;;;;;;;15.44;36.89;95289.13;4934765;28;20178;-89
2022/01/13 09:53:50;;;;;;;111.70;50.33;;;;;;;15.40;36.97;95280.31;4942051;28;20050;-89
2022/01/13 09:56:15;;;;;;;120.72;49.67;;;;;;;15.40;36.83;95285.00;4953537;28;20039;-89
2022/01/13 09:58:44;;;;;;;118.20;49.72;;;;;;;15.39;37.04;95280.78;4936918;29;20047;-89
2022/01/13 10:01:11;;;;;;;127.13;50.80;;;;;;;15.39;37.13;95284.25;4917655;28;20058;-88
2022/01/13 10:03:37;;;;;;;107.55;48.47;;;;;;;15.45;37.17;95281.72;4919710;29;20511;-88
2022/01/13 10:06:16;;;;;;;131.02;51.00;;;;;;;15.38;37.04;95269.09;4933689;28;20039;-88
2022/01/13 10:08:45;;;;;;;155.93;63.00;;;;;;;15.38;37.16;95265.63;4940392;28;20050;-87
2022/01/13 10:11:35;;;;;;;116.70;49.45;;;;;;;15.38;36.98;95266.38;4953080;28;20069;-87
2022/01/13 10:14:02;;;;;;;110.85;49.22;;;;;;;15.40;37.25;95271.38;4943851;29;20376;-88
2022/01/13 10:16:28;;;;;;;96.82;47.72;;;;;;;15.42;37.43;95269.75;4918830;29;20404;-87
2022/01/13 10:18:54;;;;;;;116.20;48.95;;;;;;;15.42;37.19;95269.75;4922204;29;20052;-88
2022/01/13 10:21:20;;;;;;;123.90;49.35;;;;;;;15.42;37.44;95261.56;4926463;28;20055;-86
2022/01/13 10:24:01;;;;;;;176.93;74.13;;;;;;;15.46;37.12;95258.72;4941288;28;20126;-91
2022/01/13 10:26:27;;;;;;;101.38;44.50;;;;;;;15.49;37.08;95255.09;4954811;28;20051;-87
2022/01/13 10:28:53;;;;;;;129.07;52.13;;;;;;;15.47;37.08;95237.66;4937444;28;20265;-88
2022/01/13 10:31:18;;;;;;;107.28;49.10;;;;;;;15.52;37.24;95237.09;4923773;28;20051;-88
2022/01/13 10:33:43;;;;;;;95.45;45.10;;;;;;;15.60;36.76;95235.63;4939746;28;20043;-87
2022/01/13 10:36:10;;;;;;;110.70;49.25;;;;;;;15.53;37.04;95227.72;4951732;28;20470;-88
2022/01/13 10:38:55;;;;;;;138.07;53.47;;;;;;;15.53;37.27;95236.66;4939131;28;20066;-88
2022/01/13 10:41:50;;;;;;;95.93;44.28;;;;;;;15.55;37.05;95236.19;4953882;28;20043;-89
2022/01/13 10:44:18;;;;;;;111.13;47.63;;;;;;;15.49;37.01;95244.19;4938019;28;20138;-87
2022/01/13 10:46:59;;;;;;;103.25;45.17;;;;;;;15.50;37.27;95234.06;4925108;28;20103;-89
2022/01/13 10:49:32;;;;;;;117.63;47.78;;;;;;;15.57;37.41;95228.38;4948334;28;20121;-88
2022/01/13 10:52:16;;;;;;;104.78;46.40;;;;;;;15.52;37.43;95218.78;4941783;28;20046;-88
2022/01/13 10:54:45;;;;;;;119.43;48.28;;;;;;;15.52;37.47;95207.88;4942932;28;20044;-89
2022/01/13 10:57:22;;;;;;;114.88;46.38;;;;;;;15.51;37.39;95221.94;4943093;28;20042;-89
2022/01/13 10:59:48;;;;;;;126.30;46.53;;;;;;;15.59;37.27;95217.78;4923583;28;20043;-86
2022/01/13 11:02:14;;;;;;;153.05;49.20;;;;;;;15.54;37.71;95196.53;4922805;28;20046;-88
2022/01/13 11:04:39;;;;;;;131.45;48.53;;;;;;;15.60;39.90;95202.91;4919046;29;20130;-86
2022/01/13 11:07:12;;;;;;;115.05;46.03;;;;;;;15.75;39.55;95201.16;4949052;28;20502;-86
2022/01/13 11:09:42;;;;;;;105.30;43.92;;;;;;;15.78;37.60;95205.72;4952765;28;20116;-88
2022/01/13 11:12:09;;;;;;;93.93;42.53;;;;;;;15.79;37.80;95204.53;4935007;28;20712;-89
2022/01/13 11:14:41;;;;;;;97.03;40.67;;;;;;;15.74;37.54;95208.59;4927016;29;20035;-85
2022/01/13 11:17:07;;;;;;;104.95;41.55;;;;;;;15.84;37.31;95206.63;4931936;28;20039;-85
2022/01/13 11:19:33;;;;;;;83.38;36.55;;;;;;;15.84;37.16;95200.41;4951811;28;20062;-85
2022/01/13 11:21:59;;;;;;;83.80;35.72;;;;;;;15.92;36.98;95209.84;4949506;28;20566;-85
2022/01/13 11:24:24;;;;;;;112.05;41.75;;;;;;;15.89;37.13;95218.94;4935025;28;20047;-86
2022/01/13 11:26:50;;;;;;;79.82;38.20;;;;;;;15.87;37.27;95213.16;4930800;28;20439;-85
2022/01/13 11:29:16;;;;;;;98.75;34.53;;;;;;;15.93;37.16;95209.41;4933071;28;20490;-86
2022/01/13 11:31:42;;;;;;;82.82;33.97;;;;;;;15.83;37.25;95226.16;4934331;28;20568;-89
2022/01/13 11:34:07;;;;;;;60.70;32.72;;;;;;;15.82;37.51;95224.66;4963138;28;20130;-86